Time;durP1;ratioP1;P1;durP2;ratioP2;P2;SDS_P1;SDS_P2;PMS_P1;PMS_P2;Temp;Humidity;BMP_temperature;BMP_pressure;BME280_temperature;BME280_humidity;BME280_pressure;Samples;Min_cycle;Max_cycle;Signal;HPM_P1;HPM_P2
2022/06/26 00:01:42;;;;;;;5.65;2.65;;;;;;;17.35;100.00;98223.91;5047012;28;20025;-72
2022/06/26 00:04:07;;;;;;;6.07;2.65;;;;;;;17.42;100.00;98211.97;5062262;28;20020;-72
2022/06/26 00:06:33;;;;;;;6.53;2.40;;;;;;;17.52;100.00;98214.09;5062270;28;20032;-72
2022/06/26 00:08:58;;;;;;;3.65;2.50;;;;;;;17.56;100.00;98222.81;5062824;28;20020;-72
2022/06/26 00:11:24;;;;;;;5.32;2.53;;;;;;;17.56;100.00;98225.47;5061390;28;20245;-73
2022/06/26 00:13:49;;;;;;;5.85;2.55;;;;;;;17.54;100.00;98230.88;5062751;28;20277;-72
2022/06/26 00:16:15;;;;;;;3.97;2.25;;;;;;;17.55;100.00;98234.38;5062930;28;20021;-72
2022/06/26 00:18:41;;;;;;;4.47;2.22;;;;;;;17.53;100.00;98238.94;5062287;28;20032;-72
2022/06/26 00:21:07;;;;;;;2.50;1.73;;;;;;;17.48;100.00;98243.63;5060539;28;20092;-73
2022/06/26 00:23:34;;;;;;;6.55;2.38;;;;;;;17.51;100.00;98243.47;5058765;28;20040;-72
2022/06/26 00:26:01;;;;;;;3.50;1.83;;;;;;;17.47;100.00;98252.56;5049498;28;20358;-72
2022/06/26 00:28:27;;;;;;;5.90;2.10;;;;;;;17.45;100.00;98239.34;5043433;28;20297;-72
2022/06/26 00:30:52;;;;;;;7.38;2.30;;;;;;;17.42;100.00;98249.22;5057500;28;20021;-72
2022/06/26 00:33:18;;;;;;;4.80;1.90;;;;;;;17.41;100.00;98247.53;5049051;28;20048;-73
2022/06/26 00:35:43;;;;;;;7.32;2.05;;;;;;;17.36;100.00;98257.53;5046606;28;20048;-73
2022/06/26 00:38:08;;;;;;;5.00;1.98;;;;;;;17.32;100.00;98253.31;5065069;28;20067;-73
2022/06/26 00:40:34;;;;;;;5.82;2.03;;;;;;;17.21;100.00;98253.88;5066216;28;20074;-73
2022/06/26 00:42:59;;;;;;;6.10;1.77;;;;;;;17.11;100.00;98256.16;5057993;28;20219;-72
2022/06/26 00:45:24;;;;;;;5.60;2.17;;;;;;;17.11;100.00;98253.50;5066343;28;20029;-73
2022/06/26 00:47:50;;;;;;;7.70;2.03;;;;;;;17.09;100.00;98249.22;5066155;28;20036;-72
2022/06/26 00:50:16;;;;;;;4.32;2.17;;;;;;;17.05;100.00;98253.81;5066290;28;20108;-73
2022/06/26 00:52:41;;;;;;;3.75;1.95;;;;;;;17.05;100.00;98248.50;5063765;28;20021;-73
2022/06/26 00:55:09;;;;;;;3.10;1.77;;;;;;;17.09;100.00;98247.38;5066228;28;20025;-73
2022/06/26 00:57:35;;;;;;;5.60;2.05;;;;;;;17.10;100.00;98253.56;5065913;28;20051;-73
2022/06/26 01:00:03;;;;;;;7.43;1.77;;;;;;;17.09;100.00;98247.38;5055095;28;20317;-73
2022/06/26 01:02:28;;;;;;;5.15;2.03;;;;;;;17.05;100.00;98251.16;5053205;28;20025;-72
2022/06/26 01:04:54;;;;;;;3.33;1.67;;;;;;;17.08;100.00;98250.13;5064447;28;20021;-72
2022/06/26 01:07:19;;;;;;;5.18;1.73;;;;;;;16.98;100.00;98244.44;5066065;28;20025;-72
2022/06/26 01:09:44;;;;;;;7.00;1.70;;;;;;;16.87;100.00;98249.41;5065667;28;20031;-72
2022/06/26 01:12:10;;;;;;;2.67;1.77;;;;;;;16.84;100.00;98246.06;5061337;28;20024;-72
2022/06/26 01:14:36;;;;;;;2.78;1.58;;;;;;;16.87;100.00;98261.88;5046397;28;20128;-72
2022/06/26 01:17:02;;;;;;;9.30;2.28;;;;;;;16.85;100.00;98266.38;5045264;28;20136;-72
2022/06/26 01:19:28;;;;;;;4.80;1.90;;;;;;;16.81;100.00;98278.13;5046273;28;20026;-72
2022/06/26 01:21:54;;;;;;;7.20;1.83;;;;;;;16.87;100.00;98268.03;5048632;28;20029;-72
2022/06/26 01:24:19;;;;;;;7.22;1.70;;;;;;;16.88;100.00;98267.09;5065609;28;20060;-72
2022/06/26 01:26:44;;;;;;;3.83;1.73;;;;;;;16.86;100.00;98268.09;5065548;28;20051;-72
2022/06/26 01:29:10;;;;;;;9.45;1.85;;;;;;;16.77;100.00;98277.41;5046433;28;20021;-72
2022/06/26 01:31:36;;;;;;;3.42;1.92;;;;;;;16.69;100.00;98273.41;5057666;28;20346;-72
2022/06/26 01:34:07;;;;;;;5.15;2.53;;;;;;;16.74;100.00;98277.56;5046075;28;20093;-72
2022/06/26 01:36:32;;;;;;;3.65;2.22;;;;;;;16.78;100.00;98283.59;5063502;28;20324;-72
2022/06/26 01:38:58;;;;;;;3.55;2.05;;;;;;;16.72;100.00;98276.78;5065230;28;20055;-72
2022/06/26 01:41:23;;;;;;;4.07;1.80;;;;;;;16.67;100.00;98273.47;5065007;28;20078;-72
2022/06/26 01:43:49;;;;;;;3.13;1.60;;;;;;;16.70;100.00;98275.13;5065392;28;20029;-72
2022/06/26 01:46:14;;;;;;;3.38;1.83;;;;;;;16.75;100.00;98279.28;5056224;28;20033;-72
2022/06/26 01:48:40;;;;;;;2.08;1.40;;;;;;;16.76;100.00;98274.81;5065178;28;20070;-72
2022/06/26 01:51:07;;;;;;;2.80;1.63;;;;;;;16.74;100.00;98274.88;5063949;28;20385;-72
2022/06/26 01:53:34;;;;;;;2.65;1.60;;;;;;;16.71;100.00;98280.34;5064149;28;20025;-72
2022/06/26 01:55:59;;;;;;;3.72;2.00;;;;;;;16.68;100.00;98288.47;5057883;28;20024;-72
2022/06/26 01:58:24;;;;;;;3.17;1.70;;;;;;;16.56;100.00;98288.22;5050088;28;20092;-72
2022/06/26 02:00:50;;;;;;;7.00;1.70;;;;;;;16.53;100.00;98289.25;5045598;28;20029;-72
2022/06/26 02:03:17;;;;;;;9.40;1.92;;;;;;;16.44;100.00;98279.06;5044329;28;20032;-72
2022/06/26 02:05:43;;;;;;;4.93;2.22;;;;;;;16.45;100.00;98290.56;5059890;28;20197;-72
2022/06/26 02:08:08;;;;;;;10.35;1.85;;;;;;;16.42;100.00;98291.50;5057806;28;20088;-72
2022/06/26 02:13:37;;;;;;;4.80;1.58;;;;;;;16.33;100.00;98286.63;5062722;28;20074;-72
2022/06/26 02:16:17;;;;;;;2.65;1.70;;;;;;;16.29;100.00;98279.75;5046395;28;20229;-72
2022/06/26 02:18:45;;;;;;;3.47;1.98;;;;;;;16.07;100.00;98273.72;5063539;28;20021;-72
2022/06/26 02:21:16;;;;;;;3.17;1.88;;;;;;;15.95;100.00;98265.50;5064308;28;20351;-72
2022/06/26 02:23:43;;;;;;;4.78;1.67;;;;;;;15.96;100.00;98259.25;5045306;28;20414;-72
2022/06/26 02:26:08;;;;;;;4.85;1.67;;;;;;;15.83;100.00;98258.97;5045017;28;20105;-72
2022/06/26 02:28:35;;;;;;;5.15;2.20;;;;;;;15.77;100.00;98253.06;5061588;28;20024;-72
2022/06/26 02:31:01;;;;;;;7.60;2.15;;;;;;;15.66;100.00;98261.50;5056223;28;20053;-72
2022/06/26 02:33:28;;;;;;;7.88;1.70;;;;;;;15.67;100.00;98268.56;5057575;28;20035;-72
2022/06/26 02:35:55;;;;;;;5.70;1.67;;;;;;;15.63;100.00;98269.59;5057603;28;20236;-72
2022/06/26 02:38:22;;;;;;;2.22;1.70;;;;;;;15.53;100.00;98270.13;5063889;28;20025;-72
2022/06/26 02:40:48;;;;;;;28.52;2.38;;;;;;;15.50;100.00;98271.09;5059923;28;20033;-72
2022/06/26 02:43:13;;;;;;;31.85;2.45;;;;;;;15.44;100.00;98273.16;5058271;28;20079;-73
2022/06/26 02:45:39;;;;;;;31.00;2.20;;;;;;;15.45;100.00;98273.09;5063847;28;20024;-72
2022/06/26 02:48:05;;;;;;;20.50;1.90;;;;;;;15.38;100.00;98266.34;5064080;28;20358;-73
2022/06/26 02:50:30;;;;;;;21.02;1.75;;;;;;;15.36;100.00;98260.22;5064071;28;20343;-72
2022/06/26 02:52:55;;;;;;;27.10;1.90;;;;;;;15.29;100.00;98250.81;5056931;28;20024;-72
2022/06/26 02:55:21;;;;;;;16.48;1.83;;;;;;;15.18;100.00;98248.63;5063284;28;20027;-72
2022/06/26 02:57:46;;;;;;;27.52;1.58;;;;;;;15.14;100.00;98246.16;5043748;28;20028;-72
2022/06/26 03:00:13;;;;;;;33.70;1.73;;;;;;;15.22;100.00;98246.69;5045149;28;20036;-72
2022/06/26 03:02:39;;;;;;;1.33;1.17;;;;;;;15.25;100.00;98259.81;5054062;28;20087;-72
2022/06/26 03:05:05;;;;;;;5.50;1.73;;;;;;;15.23;100.00;98251.06;5045545;28;20100;-72
2022/06/26 03:07:31;;;;;;;26.13;1.83;;;;;;;15.06;100.00;98253.56;5044263;28;20344;-72
2022/06/26 03:09:56;;;;;;;18.75;1.90;;;;;;;15.11;100.00;98267.50;5043129;28;20093;-72
2022/06/26 03:12:22;;;;;;;8.90;1.77;;;;;;;15.18;100.00;98273.41;5051374;28;20021;-72
2022/06/26 03:14:48;;;;;;;23.17;1.90;;;;;;;15.17;100.00;98275.19;5050727;28;20056;-72
2022/06/26 03:17:15;;;;;;;12.65;1.63;;;;;;;15.16;100.00;98269.03;5044236;28;20202;-72
2022/06/26 03:19:41;;;;;;;38.88;2.42;;;;;;;15.04;100.00;98260.75;5044141;28;20242;-72
2022/06/26 03:22:06;;;;;;;28.35;2.20;;;;;;;14.97;100.00;98264.59;5048754;28;20047;-72
2022/06/26 03:24:31;;;;;;;10.05;1.58;;;;;;;14.96;100.00;98268.16;5063158;28;20067;-72
2022/06/26 03:26:57;;;;;;;3.13;1.65;;;;;;;15.00;100.00;98265.31;5063382;28;20048;-72
2022/06/26 03:29:22;;;;;;;3.35;1.95;;;;;;;15.00;100.00;98264.47;5056497;28;20067;-72
2022/06/26 03:31:47;;;;;;;5.93;1.83;;;;;;;15.01;100.00;98268.81;5052177;28;20092;-72
2022/06/26 03:34:13;;;;;;;10.60;1.85;;;;;;;15.07;100.00;98266.75;5044399;28;20067;-72
2022/06/26 03:36:38;;;;;;;2.55;1.70;;;;;;;15.11;100.00;98278.09;5044604;28;20021;-72
2022/06/26 03:39:04;;;;;;;8.77;2.10;;;;;;;15.15;100.00;98282.34;5043862;28;20198;-72
2022/06/26 03:41:30;;;;;;;6.25;2.15;;;;;;;15.18;100.00;98284.88;5043907;28;20033;-72
2022/06/26 03:43:56;;;;;;;3.42;1.67;;;;;;;15.23;100.00;98273.13;5052187;28;20029;-72
2022/06/26 03:46:21;;;;;;;2.50;1.67;;;;;;;15.28;100.00;98280.88;5045258;28;20030;-72
2022/06/26 03:48:47;;;;;;;2.55;1.83;;;;;;;15.30;100.00;98278.16;5058626;28;20025;-72
2022/06/26 03:51:13;;;;;;;10.50;1.52;;;;;;;15.32;100.00;98277.19;5043845;28;20056;-72
2022/06/26 03:53:39;;;;;;;3.85;1.55;;;;;;;15.25;100.00;98270.41;5059869;28;20249;-72
2022/06/26 03:56:04;;;;;;;10.10;1.88;;;;;;;15.22;100.00;98264.41;5063224;28;20028;-72
2022/06/26 03:58:30;;;;;;;6.93;1.92;;;;;;;15.18;100.00;98268.94;5048905;28;20025;-72
2022/06/26 04:00:55;;;;;;;3.17;1.42;;;;;;;15.23;100.00;98278.44;5057909;28;20056;-72
2022/06/26 04:03:21;;;;;;;7.88;1.67;;;;;;;15.37;100.00;98277.88;5049219;28;20071;-72
2022/06/26 04:05:47;;;;;;;2.03;1.33;;;;;;;15.54;100.00;98277.13;5043692;28;20032;-72
2022/06/26 04:08:12;;;;;;;2.65;1.60;;;;;;;15.68;100.00;98274.69;5043618;28;20028;-72
2022/06/26 04:10:38;;;;;;;4.97;1.60;;;;;;;15.88;100.00;98287.94;5050678;28;20025;-72
2022/06/26 04:13:05;;;;;;;6.35;1.77;;;;;;;16.02;100.00;98296.13;5053322;28;20036;-72
2022/06/26 04:15:33;;;;;;;5.05;1.40;;;;;;;16.12;100.00;98292.97;5059219;28;20036;-72
2022/06/26 04:17:58;;;;;;;2.22;1.17;;;;;;;16.24;100.00;98280.91;5060846;28;20025;-72
2022/06/26 04:20:24;;;;;;;3.53;1.63;;;;;;;16.37;100.00;98282.91;5066643;28;20060;-72
2022/06/26 04:23:08;;;;;;;8.77;1.85;;;;;;;16.52;100.00;98276.88;5066860;28;20082;-72
2022/06/26 04:25:37;;;;;;;2.55;1.73;;;;;;;16.71;100.00;98277.69;5048422;28;20108;-72
2022/06/26 04:28:04;;;;;;;1.98;1.55;;;;;;;16.82;100.00;98259.44;5047318;28;20181;-72
2022/06/26 04:30:30;;;;;;;5.53;1.67;;;;;;;16.93;100.00;98250.94;5053967;28;20096;-72
2022/06/26 04:32:55;;;;;;;6.65;1.60;;;;;;;17.28;100.00;98256.13;5057001;28;20026;-72
2022/06/26 04:35:21;;;;;;;3.92;1.45;;;;;;;18.65;100.00;98258.38;5066605;28;20020;-72
2022/06/26 04:37:46;;;;;;;1.52;1.20;;;;;;;19.43;91.40;98244.84;5050545;28;20025;-72
2022/06/26 04:40:13;;;;;;;4.75;1.77;;;;;;;19.86;88.14;98252.78;5047029;28;20029;-72
2022/06/26 04:42:39;;;;;;;4.03;1.30;;;;;;;20.17;86.50;98257.94;5052873;28;20090;-72
2022/06/26 04:45:06;;;;;;;10.35;2.10;;;;;;;20.97;82.41;98260.69;5063796;28;20033;-73
2022/06/26 04:47:31;;;;;;;1.00;0.90;;;;;;;20.21;84.89;98277.28;5046884;28;20029;-72
2022/06/26 04:49:57;;;;;;;1.27;1.10;;;;;;;20.59;83.43;98271.22;5046880;28;20305;-73
2022/06/26 04:52:22;;;;;;;6.93;1.50;;;;;;;20.19;86.46;98272.03;5046971;28;20194;-73
2022/06/26 04:54:48;;;;;;;3.38;1.10;;;;;;;18.89;89.99;98256.97;5046803;28;20369;-73
2022/06/26 04:57:13;;;;;;;4.45;1.20;;;;;;;19.02;92.18;98263.28;5045608;28;20021;-73
2022/06/26 04:59:39;;;;;;;1.50;1.40;;;;;;;20.31;87.46;98273.94;5046607;28;20025;-73
2022/06/26 05:02:05;;;;;;;7.13;1.75;;;;;;;21.59;82.04;98269.78;5046717;28;20341;-73
2022/06/26 05:04:31;;;;;;;1.77;1.13;;;;;;;22.59;79.66;98285.84;5047822;28;20028;-73
2022/06/26 05:06:56;;;;;;;3.65;1.05;;;;;;;22.84;76.86;98285.72;5046556;28;20025;-73
2022/06/26 05:09:23;;;;;;;1.83;1.23;;;;;;;23.78;74.74;98282.94;5046548;28;20028;-73
2022/06/26 05:11:49;;;;;;;2.17;1.40;;;;;;;24.19;73.25;98291.34;5046503;28;20181;-73
2022/06/26 05:14:15;;;;;;;2.15;1.13;;;;;;;24.17;70.59;98303.22;5049050;28;20033;-73
2022/06/26 05:16:40;;;;;;;4.10;1.40;;;;;;;24.99;70.18;98304.47;5046410;28;20029;-73
2022/06/26 05:19:06;;;;;;;5.78;1.42;;;;;;;24.87;68.84;98305.47;5046505;28;20022;-71
2022/06/26 05:21:31;;;;;;;7.45;1.42;;;;;;;25.14;68.35;98297.81;5049456;28;20029;-71
2022/06/26 05:23:57;;;;;;;9.00;2.15;;;;;;;25.77;68.52;98309.56;5050134;28;20029;-71
2022/06/26 05:26:23;;;;;;;2.72;1.33;;;;;;;26.84;64.34;98312.59;5050888;28;20259;-71
2022/06/26 05:28:49;;;;;;;5.85;1.58;;;;;;;25.82;65.74;98304.63;5065549;28;20025;-71
2022/06/26 05:31:14;;;;;;;5.75;1.60;;;;;;;25.68;67.25;98307.63;5077586;28;20253;-71
2022/06/26 05:33:40;;;;;;;2.90;1.45;;;;;;;26.52;64.54;98317.28;5091052;28;20087;-71
2022/06/26 05:36:07;;;;;;;3.80;1.63;;;;;;;26.55;64.09;98316.13;5090610;28;20043;-71
2022/06/26 05:38:36;;;;;;;4.78;1.52;;;;;;;26.45;63.93;98320.66;5090381;28;20048;-71
2022/06/26 05:41:01;;;;;;;10.35;1.95;;;;;;;25.45;66.16;98319.53;5090748;28;20024;-71
2022/06/26 05:43:27;;;;;;;5.07;1.20;;;;;;;23.91;71.74;98318.66;5090924;28;20043;-71
2022/06/26 05:45:53;;;;;;;7.07;1.65;;;;;;;22.78;74.39;98308.50;5090731;28;20025;-71
2022/06/26 05:48:18;;;;;;;2.33;1.67;;;;;;;22.24;76.15;98306.28;5091719;28;20020;-71
2022/06/26 05:50:43;;;;;;;5.68;1.80;;;;;;;21.82;78.78;98309.28;5091383;28;20048;-71
2022/06/26 05:53:09;;;;;;;4.50;2.40;;;;;;;21.39;81.46;98322.06;5091405;28;20020;-71
2022/06/26 05:55:34;;;;;;;2.17;1.80;;;;;;;21.24;81.58;98323.09;5091008;28;20036;-71
2022/06/26 05:58:00;;;;;;;3.33;2.22;;;;;;;20.98;82.23;98329.31;5091330;28;20032;-71
2022/06/26 06:00:26;;;;;;;6.88;2.67;;;;;;;20.73;82.71;98327.31;5091430;28;20024;-71
2022/06/26 06:02:51;;;;;;;5.10;2.38;;;;;;;20.99;81.80;98326.53;5091145;28;20209;-71
2022/06/26 06:05:17;;;;;;;7.45;2.88;;;;;;;20.69;84.50;98341.84;5091063;28;20024;-71
2022/06/26 06:07:42;;;;;;;4.78;2.95;;;;;;;20.49;84.38;98339.59;5091243;28;20032;-71
2022/06/26 06:10:09;;;;;;;4.53;2.63;;;;;;;20.67;84.22;98349.16;5091043;28;20024;-71
2022/06/26 06:12:35;;;;;;;6.13;3.20;;;;;;;21.01;83.66;98347.84;5091205;28;20024;-71
2022/06/26 06:15:01;;;;;;;6.60;3.25;;;;;;;23.78;75.83;98360.91;5091220;28;20084;-71
2022/06/26 06:17:36;;;;;;;6.43;2.83;;;;;;;24.27;70.97;98366.06;5090854;28;20024;-71
2022/06/26 06:20:07;;;;;;;7.28;4.05;;;;;;;24.28;70.21;98370.44;5090839;28;20021;-71
2022/06/26 06:22:32;;;;;;;4.60;3.15;;;;;;;25.70;64.99;98370.38;5090249;28;20024;-71
2022/06/26 06:24:58;;;;;;;5.32;3.08;;;;;;;26.79;62.45;98373.38;5089543;28;20036;-71
2022/06/26 06:27:24;;;;;;;4.03;2.10;;;;;;;25.66;62.97;98358.16;5089527;28;20031;-71
2022/06/26 06:29:49;;;;;;;4.07;2.50;;;;;;;24.09;67.34;98360.28;5089556;28;20264;-71
2022/06/26 06:32:15;;;;;;;7.65;2.70;;;;;;;23.05;71.85;98367.38;5089687;28;20220;-71
2022/06/26 06:34:40;;;;;;;4.30;2.33;;;;;;;22.43;74.51;98371.88;5090079;28;20024;-71
2022/06/26 06:37:06;;;;;;;7.00;3.22;;;;;;;21.70;77.78;98379.75;5090357;28;20020;-71
2022/06/26 06:39:31;;;;;;;3.88;2.63;;;;;;;21.97;76.43;98373.41;5090210;28;20017;-71
2022/06/26 06:41:57;;;;;;;5.93;2.90;;;;;;;22.68;75.00;98387.09;5089627;28;20051;-71
2022/06/26 06:44:22;;;;;;;4.25;2.80;;;;;;;22.43;77.15;98387.13;5089520;28;20024;-71
2022/06/26 06:46:47;;;;;;;4.30;2.58;;;;;;;22.25;76.35;98383.91;5089328;28;20020;-71
2022/06/26 06:49:13;;;;;;;3.45;2.47;;;;;;;21.98;78.02;98387.63;5089421;28;20019;-71
2022/06/26 06:51:38;;;;;;;3.85;2.53;;;;;;;22.14;76.36;98385.59;5089542;28;20224;-71
2022/06/26 06:54:04;;;;;;;4.35;3.22;;;;;;;22.56;75.50;98388.00;5089614;28;20031;-71
2022/06/26 06:56:29;;;;;;;5.85;3.08;;;;;;;22.30;77.58;98380.91;5088923;28;20048;-71
2022/06/26 06:58:54;;;;;;;4.53;2.63;;;;;;;22.48;75.33;98395.69;5089579;28;20036;-71
2022/06/26 07:01:20;;;;;;;4.45;2.45;;;;;;;22.16;76.87;98395.28;5089348;28;20088;-71
2022/06/26 07:03:45;;;;;;;8.35;3.38;;;;;;;21.80;77.15;98396.97;5089320;28;20091;-71
2022/06/26 07:06:11;;;;;;;3.78;2.10;;;;;;;21.96;75.02;98392.25;5089162;28;20020;-71
2022/06/26 07:08:36;;;;;;;4.38;2.55;;;;;;;22.49;76.07;98397.41;5089220;28;20028;-71
2022/06/26 07:11:01;;;;;;;4.03;2.40;;;;;;;22.84;74.92;98388.59;5088814;28;20027;-71
2022/06/26 07:13:27;;;;;;;2.95;2.65;;;;;;;23.26;69.71;98390.00;5089165;28;20020;-71
2022/06/26 07:15:52;;;;;;;4.68;2.75;;;;;;;24.78;65.99;98395.06;5088944;28;20025;-71
2022/06/26 07:18:17;;;;;;;5.72;2.22;;;;;;;24.87;67.84;98407.78;5088266;28;20024;-71
2022/06/26 07:20:43;;;;;;;5.10;2.22;;;;;;;26.01;63.27;98407.28;5087863;28;20029;-71
2022/06/26 07:23:08;;;;;;;2.22;1.80;;;;;;;26.79;59.82;98409.34;5087489;28;20027;-71
2022/06/26 07:25:34;;;;;;;3.08;1.90;;;;;;;26.67;61.22;98404.19;5087386;28;20052;-71
2022/06/26 07:27:59;;;;;;;2.90;1.92;;;;;;;26.32;60.16;98401.81;5087438;28;20025;-71
2022/06/26 07:30:25;;;;;;;3.90;1.77;;;;;;;26.29;61.22;98395.84;5087848;28;20051;-71
2022/06/26 07:32:50;;;;;;;2.92;1.65;;;;;;;25.14;63.46;98383.16;5087191;28;20020;-71
2022/06/26 07:35:15;;;;;;;3.17;1.85;;;;;;;24.16;64.93;98383.03;5087229;28;20056;-71
2022/06/26 07:37:41;;;;;;;6.93;1.70;;;;;;;24.04;65.59;98389.34;5087076;28;20026;-71
2022/06/26 07:40:07;;;;;;;2.88;1.90;;;;;;;24.34;67.92;98395.03;5087258;28;20012;-71
2022/06/26 07:42:32;;;;;;;5.03;1.73;;;;;;;23.93;68.30;98397.38;5087637;28;20033;-71
2022/06/26 07:44:58;;;;;;;3.15;2.00;;;;;;;23.99;66.79;98402.31;5086972;28;20031;-71
2022/06/26 07:47:23;;;;;;;3.65;2.10;;;;;;;23.41;67.17;98396.88;5087764;28;20032;-71
2022/06/26 07:49:49;;;;;;;4.10;2.10;;;;;;;23.28;69.53;98407.69;5087999;28;20024;-71
2022/06/26 07:52:14;;;;;;;6.65;2.50;;;;;;;23.41;70.41;98418.38;5088382;28;20087;-71
2022/06/26 07:54:41;;;;;;;7.07;2.72;;;;;;;23.32;70.98;98421.78;5088488;28;20255;-71
2022/06/26 07:57:06;;;;;;;4.93;2.60;;;;;;;23.42;70.04;98421.94;5088101;28;20084;-71
2022/06/26 07:59:33;;;;;;;5.95;2.65;;;;;;;23.35;72.18;98426.91;5088151;28;20027;-71
2022/06/26 08:01:58;;;;;;;4.15;2.60;;;;;;;23.40;69.65;98423.88;5088379;28;20104;-71
2022/06/26 08:04:24;;;;;;;5.03;2.45;;;;;;;23.44;69.86;98426.22;5088129;28;20021;-71
2022/06/26 08:06:49;;;;;;;3.80;2.35;;;;;;;25.20;64.76;98431.16;5087747;28;20024;-71
2022/06/26 08:09:14;;;;;;;3.50;2.40;;;;;;;26.04;62.17;98428.63;5087339;28;20042;-71
2022/06/26 08:11:40;;;;;;;3.00;2.22;;;;;;;27.39;59.25;98432.75;5087095;28;20031;-71
2022/06/26 08:14:05;;;;;;;3.00;1.90;;;;;;;27.79;54.22;98430.84;5087039;28;20028;-71
2022/06/26 08:16:31;;;;;;;4.72;2.42;;;;;;;28.06;53.40;98427.47;5087512;28;20108;-71
2022/06/26 08:18:57;;;;;;;3.03;1.90;;;;;;;28.81;54.73;98426.47;5088209;28;20024;-71
2022/06/26 08:24:06;;;;;;;4.30;1.90;;;;;;;29.32;51.49;98425.16;5088984;28;20097;-71
2022/06/26 08:26:32;;;;;;;6.05;2.28;;;;;;;30.03;50.65;98416.97;5088918;28;20037;-71
2022/06/26 08:28:57;;;;;;;3.70;2.13;;;;;;;30.93;49.71;98428.34;5088916;28;20064;-71
2022/06/26 08:31:23;;;;;;;2.78;1.75;;;;;;;30.52;48.58;98423.63;5089615;28;20055;-71
2022/06/26 08:33:48;;;;;;;5.32;2.08;;;;;;;30.02;47.35;98417.13;5089253;28;20080;-71
2022/06/26 08:36:13;;;;;;;5.50;2.47;;;;;;;28.04;53.38;98413.22;5089221;28;20035;-71
2022/06/26 08:38:39;;;;;;;2.67;1.83;;;;;;;26.84;55.31;98409.81;5088921;28;20020;-71
2022/06/26 08:41:07;;;;;;;3.70;1.95;;;;;;;26.67;55.96;98401.50;5089349;28;20031;-71
2022/06/26 08:43:33;;;;;;;3.42;2.10;;;;;;;26.61;57.10;98402.00;5088578;28;20020;-71
2022/06/26 08:46:03;;;;;;;2.92;2.03;;;;;;;26.15;56.20;98404.25;5087196;28;20028;-71
2022/06/26 08:48:35;;;;;;;5.32;2.13;;;;;;;26.65;59.80;98430.47;5088152;28;20084;-71
2022/06/26 08:51:02;;;;;;;3.63;1.83;;;;;;;26.60;58.56;98417.31;5087961;28;20024;-71
2022/06/26 08:53:28;;;;;;;4.30;2.30;;;;;;;25.79;60.51;98423.53;5087516;28;20099;-71
2022/06/26 08:55:54;;;;;;;5.07;2.10;;;;;;;25.48;62.58;98430.63;5087785;28;20033;-71
2022/06/26 08:58:19;;;;;;;3.83;2.28;;;;;;;26.39;58.88;98434.53;5090942;28;20024;-71
2022/06/26 09:00:46;;;;;;;4.43;2.60;;;;;;;28.42;54.75;98446.53;5091515;28;20355;-71
2022/06/26 09:03:12;;;;;;;4.22;2.38;;;;;;;28.60;51.76;98441.25;5092577;28;20048;-71
2022/06/26 09:05:38;;;;;;;3.13;1.95;;;;;;;27.72;54.60;98440.53;5092048;28;20029;-71
2022/06/26 09:08:03;;;;;;;4.00;2.33;;;;;;;26.86;55.72;98447.50;5091989;28;20343;-71
2022/06/26 09:10:34;;;;;;;3.20;2.00;;;;;;;26.44;57.90;98449.34;5091922;28;20031;-71
2022/06/26 09:13:00;;;;;;;2.60;1.85;;;;;;;26.11;59.60;98452.25;5092402;28;20020;-71
2022/06/26 09:15:26;;;;;;;3.45;1.90;;;;;;;25.85;59.31;98441.91;5091705;28;20049;-71
2022/06/26 09:17:57;;;;;;;2.88;1.95;;;;;;;25.85;58.33;98444.59;5091305;28;20031;-71
2022/06/26 09:20:23;;;;;;;4.38;1.73;;;;;;;25.37;60.27;98448.69;5090758;28;20211;-71
2022/06/26 09:22:53;;;;;;;2.92;2.22;;;;;;;24.87;61.85;98448.19;5091201;28;20028;-71
2022/06/26 09:25:19;;;;;;;4.65;2.00;;;;;;;24.63;64.43;98447.41;5090826;28;20033;-71
2022/06/26 09:27:45;;;;;;;5.45;2.20;;;;;;;24.25;64.06;98441.50;5090912;28;20028;-71
2022/06/26 09:30:10;;;;;;;2.97;1.55;;;;;;;24.29;63.71;98437.56;5090881;28;20016;-71
2022/06/26 09:32:36;;;;;;;4.28;1.75;;;;;;;24.26;63.86;98436.94;5090075;28;20027;-71
2022/06/26 09:35:01;;;;;;;2.88;1.75;;;;;;;23.83;64.05;98434.00;5090081;28;20050;-71
2022/06/26 09:37:36;;;;;;;2.28;1.52;;;;;;;23.89;65.91;98428.13;5089690;28;20083;-71
2022/06/26 09:40:03;;;;;;;3.35;1.90;;;;;;;23.61;66.24;98439.25;5089972;28;20016;-71
2022/06/26 09:42:32;;;;;;;4.05;1.88;;;;;;;23.52;67.21;98439.06;5089617;28;20056;-71
2022/06/26 09:44:59;;;;;;;3.30;1.98;;;;;;;22.99;68.77;98440.28;5089171;28;20035;-71
2022/06/26 09:47:35;;;;;;;4.50;2.00;;;;;;;22.77;69.08;98440.13;5089477;28;20020;-71
2022/06/26 09:50:06;;;;;;;2.60;1.88;;;;;;;22.50;71.80;98436.72;5089218;28;20360;-71
2022/06/26 09:52:32;;;;;;;2.78;2.10;;;;;;;22.56;71.51;98436.28;5089249;28;20025;-71
2022/06/26 09:55:00;;;;;;;3.33;2.28;;;;;;;22.53;70.81;98431.97;5088506;28;20372;-71
2022/06/26 09:57:27;;;;;;;3.45;2.00;;;;;;;22.49;72.40;98435.84;5088183;28;20024;-71
2022/06/26 09:59:54;;;;;;;3.80;1.48;;;;;;;22.28;73.51;98436.47;5088700;28;20028;-71
2022/06/26 10:07:53;;;;;;;2.60;1.90;;;;;;;21.94;75.75;98426.34;5087758;28;20066;-71
2022/06/26 10:10:25;;;;;;;3.22;1.80;;;;;;;21.87;78.01;98403.59;5088375;28;20025;-71
2022/06/26 10:12:55;;;;;;;3.10;1.67;;;;;;;21.94;74.99;98394.19;5087871;28;20024;-71
2022/06/26 10:15:25;;;;;;;2.72;1.77;;;;;;;21.97;76.58;98402.88;5087833;28;20083;-71
2022/06/26 10:18:19;;;;;;;3.45;2.13;;;;;;;22.17;74.40;98406.84;5087968;28;20040;-71
2022/06/26 10:20:47;;;;;;;3.47;1.85;;;;;;;22.15;73.13;98403.44;5087965;28;20059;-71
2022/06/26 10:23:30;;;;;;;1.80;1.30;;;;;;;22.29;71.90;98406.00;5087745;28;20024;-71
2022/06/26 10:25:55;;;;;;;2.90;1.80;;;;;;;22.32;71.71;98416.50;5087939;28;20024;-71
2022/06/26 10:28:21;;;;;;;1.75;1.30;;;;;;;22.12;72.81;98414.38;5088081;28;20032;-71
2022/06/26 10:30:46;;;;;;;2.45;1.85;;;;;;;21.72;76.37;98418.88;5087946;28;20366;-71
2022/06/26 10:33:16;;;;;;;2.15;1.92;;;;;;;21.67;76.73;98412.13;5087778;28;20028;-71
2022/06/26 10:35:50;;;;;;;4.30;1.80;;;;;;;21.57;77.53;98408.34;5087629;28;20031;-71
2022/06/26 10:38:27;;;;;;;4.10;2.05;;;;;;;21.48;76.90;98411.63;5087720;28;20024;-71
2022/06/26 10:44:14;;;;;;;4.30;2.60;;;;;;;21.30;77.49;98406.50;5087366;28;20082;-71
2022/06/26 10:46:48;;;;;;;4.60;2.42;;;;;;;21.23;81.52;98407.88;5087478;28;20030;-71
2022/06/26 10:49:14;;;;;;;3.58;2.42;;;;;;;21.22;82.68;98416.88;5087910;28;20024;-71
2022/06/26 10:51:42;;;;;;;9.63;2.50;;;;;;;21.22;85.10;98416.88;5087399;28;20024;-71
2022/06/26 10:54:22;;;;;;;5.90;2.63;;;;;;;21.11;80.71;98408.66;5087272;28;20020;-71
2022/06/26 10:57:03;;;;;;;6.90;3.10;;;;;;;20.87;82.98;98414.72;5087423;28;20024;-71
2022/06/26 10:59:28;;;;;;;3.17;2.60;;;;;;;21.11;79.97;98414.03;5087250;28;20019;-71
2022/06/26 11:01:54;;;;;;;4.03;3.20;;;;;;;21.00;82.04;98413.88;5088029;28;20052;-71
2022/06/26 11:04:19;;;;;;;3.40;2.40;;;;;;;20.77;83.49;98409.13;5087967;28;20039;-71
2022/06/26 11:06:46;;;;;;;5.35;3.03;;;;;;;20.80;85.30;98398.22;5087940;28;20035;-71
2022/06/26 11:09:11;;;;;;;5.03;2.90;;;;;;;20.62;86.14;98403.84;5087663;28;20031;-71
2022/06/26 11:11:37;;;;;;;4.32;2.67;;;;;;;20.78;82.25;98410.81;5088085;28;20351;-71
2022/06/26 11:14:07;;;;;;;6.03;2.95;;;;;;;20.74;82.21;98422.69;5088905;28;20020;-71
2022/06/26 11:16:33;;;;;;;7.38;3.50;;;;;;;20.56;83.94;98429.19;5088465;28;20024;-71
2022/06/26 11:19:00;;;;;;;5.60;3.60;;;;;;;20.54;85.01;98433.75;5087244;28;20084;-71
2022/06/26 11:21:27;;;;;;;6.50;4.05;;;;;;;20.49;85.93;98425.16;5087627;28;20028;-71
2022/06/26 11:23:52;;;;;;;5.82;3.92;;;;;;;20.60;85.90;98430.69;5087771;28;20040;-71
2022/06/26 11:26:21;;;;;;;9.48;4.35;;;;;;;20.77;84.52;98419.81;5087814;28;20029;-71
2022/06/26 11:28:54;;;;;;;8.88;3.75;;;;;;;20.95;85.38;98417.81;5087656;28;20027;-71
2022/06/26 11:31:22;;;;;;;7.72;3.47;;;;;;;21.13;84.50;98422.81;5087789;28;20312;-71
2022/06/26 11:33:47;;;;;;;8.38;3.83;;;;;;;21.28;82.16;98415.59;5087718;28;20227;-71
2022/06/26 11:36:16;;;;;;;7.38;3.63;;;;;;;21.33;81.64;98414.34;5087373;28;20017;-71
2022/06/26 11:39:01;;;;;;;11.68;4.65;;;;;;;21.28;81.97;98413.81;5087516;28;20018;-71
2022/06/26 11:41:27;;;;;;;7.20;4.18;;;;;;;21.44;81.89;98413.63;5087471;28;20103;-71